sensor_id;sensor_type;location;lat;lon;timestamp;temperature;humidity
38936;DHT22;25541;47.458;9.644;2022-08-01T02:47:57;20.70;73.20
38936;DHT22;25541;47.458;9.644;2022-08-01T02:50:30;20.70;73.40
38936;DHT22;25541;47.458;9.644;2022-08-01T02:52:58;20.70;73.20
38936;DHT22;25541;47.458;9.644;2022-08-01T02:55:26;20.70;74.20
38936;DHT22;25541;47.458;9.644;2022-08-01T02:57:53;20.80;74.70
38936;DHT22;25541;47.458;9.644;2022-08-01T03:00:20;20.70;75.50
38936;DHT22;25541;47.458;9.644;2022-08-01T03:02:47;20.70;75.50
38936;DHT22;25541;47.458;9.644;2022-08-01T03:05:17;20.70;76.10
38936;DHT22;25541;47.458;9.644;2022-08-01T03:07:43;20.60;76.80
38936;DHT22;25541;47.458;9.644;2022-08-01T03:10:09;20.50;76.00
38936;DHT22;25541;47.458;9.644;2022-08-01T03:12:36;20.50;74.90
38936;DHT22;25541;47.458;9.644;2022-08-01T03:15:05;20.40;76.10
38936;DHT22;25541;47.458;9.644;2022-08-01T03:17:32;20.40;76.20
38936;DHT22;25541;47.458;9.644;2022-08-01T03:19:59;20.40;76.00
38936;DHT22;25541;47.458;9.644;2022-08-01T03:22:29;20.40;76.50
38936;DHT22;25541;47.458;9.644;2022-08-01T03:24:56;20.20;77.50
38936;DHT22;25541;47.458;9.644;2022-08-01T03:27:25;20.20;77.10
38936;DHT22;25541;47.458;9.644;2022-08-01T03:29:51;20.30;76.80
38936;DHT22;25541;47.458;9.644;2022-08-01T03:32:19;20.20;76.70
38936;DHT22;25541;47.458;9.644;2022-08-01T03:34:46;20.30;77.30
38936;DHT22;25541;47.458;9.644;2022-08-01T03:37:19;20.20;76.80
38936;DHT22;25541;47.458;9.644;2022-08-01T03:40:03;20.20;76.90
38936;DHT22;25541;47.458;9.644;2022-08-01T03:42:37;20.20;77.80
38936;DHT22;25541;47.458;9.644;2022-08-01T03:45:07;20.30;77.80
38936;DHT22;25541;47.458;9.644;2022-08-01T03:47:35;20.30;77.70
38936;DHT22;25541;47.458;9.644;2022-08-01T03:50:03;20.20;77.40
38936;DHT22;25541;47.458;9.644;2022-08-01T03:52:30;20.10;76.60
38936;DHT22;25541;47.458;9.644;2022-08-01T03:55:01;20.10;77.60
38936;DHT22;25541;47.458;9.644;2022-08-01T03:57:28;20.20;78.20
38936;DHT22;25541;47.458;9.644;2022-08-01T03:59:58;20.30;77.60
38936;DHT22;25541;47.458;9.644;2022-08-01T04:02:26;20.20;77.10
38936;DHT22;25541;47.458;9.644;2022-08-01T04:04:52;20.30;76.40
38936;DHT22;25541;47.458;9.644;2022-08-01T04:07:29;20.30;77.40
38936;DHT22;25541;47.458;9.644;2022-08-01T04:09:56;20.30;77.70
38936;DHT22;25541;47.458;9.644;2022-08-01T04:12:22;20.30;77.80
38936;DHT22;25541;47.458;9.644;2022-08-01T04:14:48;20.30;77.30
38936;DHT22;25541;47.458;9.644;2022-08-01T04:17:15;20.30;77.10
38936;DHT22;25541;47.458;9.644;2022-08-01T04:19:42;20.20;78.90
38936;DHT22;25541;47.458;9.644;2022-08-01T04:22:10;20.00;79.70
38936;DHT22;25541;47.458;9.644;2022-08-01T04:24:36;20.00;79.70
38936;DHT22;25541;47.458;9.644;2022-08-01T04:27:05;20.20;80.20
38936;DHT22;25541;47.458;9.644;2022-08-01T04:29:36;20.30;80.20
38936;DHT22;25541;47.458;9.644;2022-08-01T04:32:02;20.50;78.90
38936;DHT22;25541;47.458;9.644;2022-08-01T04:34:31;20.80;79.10
38936;DHT22;25541;47.458;9.644;2022-08-01T04:36:57;20.60;79.40
38936;DHT22;25541;47.458;9.644;2022-08-01T04:39:27;20.70;78.50
38936;DHT22;25541;47.458;9.644;2022-08-01T04:41:55;20.90;77.50
38936;DHT22;25541;47.458;9.644;2022-08-01T04:44:23;21.30;76.80
38936;DHT22;25541;47.458;9.644;2022-08-01T04:46:50;22.00;75.60
38936;DHT22;25541;47.458;9.644;2022-08-01T04:49:16;22.60;75.10
38936;DHT22;25541;47.458;9.644;2022-08-01T04:51:52;23.40;72.80
38936;DHT22;25541;47.458;9.644;2022-08-01T04:54:24;23.40;71.20
38936;DHT22;25541;47.458;9.644;2022-08-01T04:56:50;23.60;71.50
38936;DHT22;25541;47.458;9.644;2022-08-01T04:59:19;24.10;69.70
38936;DHT22;25541;47.458;9.644;2022-08-01T05:02:03;24.00;69.50
38936;DHT22;25541;47.458;9.644;2022-08-01T05:04:29;24.30;69.00
38936;DHT22;25541;47.458;9.644;2022-08-01T05:06:55;24.90;66.20
38936;DHT22;25541;47.458;9.644;2022-08-01T05:09:20;25.20;65.60
38936;DHT22;25541;47.458;9.644;2022-08-01T05:11:46;26.00;66.40
38936;DHT22;25541;47.458;9.644;2022-08-01T05:14:12;27.10;62.90
38936;DHT22;25541;47.458;9.644;2022-08-01T05:16:37;28.00;59.90
38936;DHT22;25541;47.458;9.644;2022-08-01T05:19:03;28.70;58.40
38936;DHT22;25541;47.458;9.644;2022-08-01T05:21:29;29.10;57.10
38936;DHT22;25541;47.458;9.644;2022-08-01T05:23:54;28.70;56.00
38936;DHT22;25541;47.458;9.644;2022-08-01T05:26:20;28.80;56.80
38936;DHT22;25541;47.458;9.644;2022-08-01T05:28:46;29.50;56.30
38936;DHT22;25541;47.458;9.644;2022-08-01T05:31:11;29.50;55.10
38936;DHT22;25541;47.458;9.644;2022-08-01T05:33:37;29.00;54.50
38936;DHT22;25541;47.458;9.644;2022-08-01T05:36:03;28.60;56.60
38936;DHT22;25541;47.458;9.644;2022-08-01T05:38:29;28.60;54.90
38936;DHT22;25541;47.458;9.644;2022-08-01T05:40:54;28.50;57.20
38936;DHT22;25541;47.458;9.644;2022-08-01T05:43:20;29.40;54.50
38936;DHT22;25541;47.458;9.644;2022-08-01T05:45:46;30.70;52.90
38936;DHT22;25541;47.458;9.644;2022-08-01T05:48:11;31.50;50.40
38936;DHT22;25541;47.458;9.644;2022-08-01T05:50:37;32.10;49.40
38936;DHT22;25541;47.458;9.644;2022-08-01T05:53:03;32.30;48.00
38936;DHT22;25541;47.458;9.644;2022-08-01T05:55:29;31.70;48.40
38936;DHT22;25541;47.458;9.644;2022-08-01T05:57:54;31.40;48.70
38936;DHT22;25541;47.458;9.644;2022-08-01T06:00:20;31.40;49.90
38936;DHT22;25541;47.458;9.644;2022-08-01T06:02:46;31.50;50.40
38936;DHT22;25541;47.458;9.644;2022-08-01T06:05:12;32.30;49.30
38936;DHT22;25541;47.458;9.644;2022-08-01T06:07:38;32.70;48.80
38936;DHT22;25541;47.458;9.644;2022-08-01T06:10:05;33.60;47.30
38936;DHT22;25541;47.458;9.644;2022-08-01T06:12:35;34.00;45.20
38936;DHT22;25541;47.458;9.644;2022-08-01T06:15:03;32.60;47.10
38936;DHT22;25541;47.458;9.644;2022-08-01T06:17:29;33.00;46.30
38936;DHT22;25541;47.458;9.644;2022-08-01T06:19:55;33.20;47.90
38936;DHT22;25541;47.458;9.644;2022-08-01T06:22:21;33.50;45.30
38936;DHT22;25541;47.458;9.644;2022-08-01T06:24:47;33.10;45.80
38936;DHT22;25541;47.458;9.644;2022-08-01T06:27:12;32.70;47.40
38936;DHT22;25541;47.458;9.644;2022-08-01T06:29:38;34.00;45.90
38936;DHT22;25541;47.458;9.644;2022-08-01T06:32:04;35.50;42.10
38936;DHT22;25541;47.458;9.644;2022-08-01T06:34:30;36.20;40.60
38936;DHT22;25541;47.458;9.644;2022-08-01T06:36:56;36.10;40.80
38936;DHT22;25541;47.458;9.644;2022-08-01T06:39:21;37.10;40.90
38936;DHT22;25541;47.458;9.644;2022-08-01T06:41:47;38.90;39.20
38936;DHT22;25541;47.458;9.644;2022-08-01T06:44:13;39.50;39.50
38936;DHT22;25541;47.458;9.644;2022-08-01T06:46:38;40.40;37.40
38936;DHT22;25541;47.458;9.644;2022-08-01T06:49:04;39.90;38.30
38936;DHT22;25541;47.458;9.644;2022-08-01T06:51:30;38.80;39.30
38936;DHT22;25541;47.458;9.644;2022-08-01T06:53:56;39.10;37.80
38936;DHT22;25541;47.458;9.644;2022-08-01T06:56:22;38.40;40.20
38936;DHT22;25541;47.458;9.644;2022-08-01T06:58:48;39.70;39.40
38936;DHT22;25541;47.458;9.644;2022-08-01T07:01:14;41.30;36.60
38936;DHT22;25541;47.458;9.644;2022-08-01T07:03:40;42.10;35.80
38936;DHT22;25541;47.458;9.644;2022-08-01T07:06:05;43.00;35.70
38936;DHT22;25541;47.458;9.644;2022-08-01T07:08:31;43.80;34.00
38936;DHT22;25541;47.458;9.644;2022-08-01T07:10:57;44.40;34.40
38936;DHT22;25541;47.458;9.644;2022-08-01T07:13:26;43.80;32.90
38936;DHT22;25541;47.458;9.644;2022-08-01T07:15:52;43.80;33.40
38936;DHT22;25541;47.458;9.644;2022-08-01T07:18:18;43.50;33.60
38936;DHT22;25541;47.458;9.644;2022-08-01T07:20:44;44.70;31.90
38936;DHT22;25541;47.458;9.644;2022-08-01T07:23:12;45.80;31.40
38936;DHT22;25541;47.458;9.644;2022-08-01T07:25:38;45.60;31.40
38936;DHT22;25541;47.458;9.644;2022-08-01T07:28:04;45.80;31.30
38936;DHT22;25541;47.458;9.644;2022-08-01T07:30:30;46.10;31.20
38936;DHT22;25541;47.458;9.644;2022-08-01T07:32:56;46.80;31.20
38936;DHT22;25541;47.458;9.644;2022-08-01T07:35:22;46.90;30.90
38936;DHT22;25541;47.458;9.644;2022-08-01T07:37:48;46.70;30.20
38936;DHT22;25541;47.458;9.644;2022-08-01T07:40:14;46.20;30.20
38936;DHT22;25541;47.458;9.644;2022-08-01T07:42:40;46.20;30.70
38936;DHT22;25541;47.458;9.644;2022-08-01T07:45:09;46.30;30.60
38936;DHT22;25541;47.458;9.644;2022-08-01T07:47:35;46.70;30.00
38936;DHT22;25541;47.458;9.644;2022-08-01T07:50:02;47.00;30.10
38936;DHT22;25541;47.458;9.644;2022-08-01T07:52:29;47.20;29.70
38936;DHT22;25541;47.458;9.644;2022-08-01T07:54:56;47.00;29.80
38936;DHT22;25541;47.458;9.644;2022-08-01T07:57:22;46.50;31.40
38936;DHT22;25541;47.458;9.644;2022-08-01T07:59:48;46.50;30.90
38936;DHT22;25541;47.458;9.644;2022-08-01T08:02:14;48.10;30.40
38936;DHT22;25541;47.458;9.644;2022-08-01T08:04:41;49.00;29.60
38936;DHT22;25541;47.458;9.644;2022-08-01T08:07:06;48.90;28.70
38936;DHT22;25541;47.458;9.644;2022-08-01T08:09:32;48.50;29.10
38936;DHT22;25541;47.458;9.644;2022-08-01T08:11:58;49.80;28.40
38936;DHT22;25541;47.458;9.644;2022-08-01T08:14:24;50.00;28.80
38936;DHT22;25541;47.458;9.644;2022-08-01T08:16:50;50.50;28.60
38936;DHT22;25541;47.458;9.644;2022-08-01T08:19:16;50.70;28.90
38936;DHT22;25541;47.458;9.644;2022-08-01T08:21:42;50.10;29.00
38936;DHT22;25541;47.458;9.644;2022-08-01T08:24:09;49.40;29.80
38936;DHT22;25541;47.458;9.644;2022-08-01T08:26:53;50.00;29.00
38936;DHT22;25541;47.458;9.644;2022-08-01T08:29:20;50.20;28.80
38936;DHT22;25541;47.458;9.644;2022-08-01T08:31:47;51.00;28.70
38936;DHT22;25541;47.458;9.644;2022-08-01T08:34:13;50.80;28.80
38936;DHT22;25541;47.458;9.644;2022-08-01T08:36:39;50.70;29.80
38936;DHT22;25541;47.458;9.644;2022-08-01T08:39:05;49.80;29.70
38936;DHT22;25541;47.458;9.644;2022-08-01T08:41:32;51.10;29.50
38936;DHT22;25541;47.458;9.644;2022-08-01T08:43:58;51.50;29.40
38936;DHT22;25541;47.458;9.644;2022-08-01T08:46:27;52.10;29.30
38936;DHT22;25541;47.458;9.644;2022-08-01T08:48:53;52.10;28.80
38936;DHT22;25541;47.458;9.644;2022-08-01T08:51:21;50.80;29.00
38936;DHT22;25541;47.458;9.644;2022-08-01T08:53:49;51.90;28.40
38936;DHT22;25541;47.458;9.644;2022-08-01T08:56:18;51.70;29.10
38936;DHT22;25541;47.458;9.644;2022-08-01T08:58:45;51.70;28.10
38936;DHT22;25541;47.458;9.644;2022-08-01T09:01:11;51.90;28.60
38936;DHT22;25541;47.458;9.644;2022-08-01T09:03:38;52.20;28.20
38936;DHT22;25541;47.458;9.644;2022-08-01T09:06:05;52.80;27.90
38936;DHT22;25541;47.458;9.644;2022-08-01T09:08:31;53.10;27.70
38936;DHT22;25541;47.458;9.644;2022-08-01T09:10:57;52.70;27.70
38936;DHT22;25541;47.458;9.644;2022-08-01T09:13:23;51.90;28.00
38936;DHT22;25541;47.458;9.644;2022-08-01T09:15:51;52.10;28.00
38936;DHT22;25541;47.458;9.644;2022-08-01T09:23:46;53.40;26.90
38936;DHT22;25541;47.458;9.644;2022-08-01T09:26:18;52.90;27.60
38936;DHT22;25541;47.458;9.644;2022-08-01T09:28:45;53.40;27.50
38936;DHT22;25541;47.458;9.644;2022-08-01T09:31:17;54.10;26.50
38936;DHT22;25541;47.458;9.644;2022-08-01T09:34:01;53.00;26.40
38936;DHT22;25541;47.458;9.644;2022-08-01T09:36:57;53.30;26.80
38936;DHT22;25541;47.458;9.644;2022-08-01T09:39:26;53.70;26.20
38936;DHT22;25541;47.458;9.644;2022-08-01T09:41:53;53.60;26.00
38936;DHT22;25541;47.458;9.644;2022-08-01T09:44:19;54.00;26.10
38936;DHT22;25541;47.458;9.644;2022-08-01T09:46:55;52.50;26.70
38936;DHT22;25541;47.458;9.644;2022-08-01T09:49:29;51.50;27.00
38936;DHT22;25541;47.458;9.644;2022-08-01T09:51:55;51.10;28.00
38936;DHT22;25541;47.458;9.644;2022-08-01T09:54:30;52.10;27.30
38936;DHT22;25541;47.458;9.644;2022-08-01T09:57:18;53.30;26.80
38936;DHT22;25541;47.458;9.644;2022-08-01T09:59:47;53.50;27.20
38936;DHT22;25541;47.458;9.644;2022-08-01T10:02:26;54.40;26.70
38936;DHT22;25541;47.458;9.644;2022-08-01T10:04:52;54.70;26.80
38936;DHT22;25541;47.458;9.644;2022-08-01T10:07:19;54.90;26.20
38936;DHT22;25541;47.458;9.644;2022-08-01T10:09:45;53.40;26.80
38936;DHT22;25541;47.458;9.644;2022-08-01T10:12:20;52.60;26.70
38936;DHT22;25541;47.458;9.644;2022-08-01T10:14:47;52.90;26.20
38936;DHT22;25541;47.458;9.644;2022-08-01T10:17:19;51.00;27.00
38936;DHT22;25541;47.458;9.644;2022-08-01T10:19:45;47.70;29.00
38936;DHT22;25541;47.458;9.644;2022-08-01T10:22:12;45.50;29.80
38936;DHT22;25541;47.458;9.644;2022-08-01T10:24:44;42.70;32.20
38936;DHT22;25541;47.458;9.644;2022-08-01T10:27:13;41.50;31.70
38936;DHT22;25541;47.458;9.644;2022-08-01T10:30:15;39.70;34.50
38936;DHT22;25541;47.458;9.644;2022-08-01T10:32:35;38.30;34.90
38936;DHT22;25541;47.458;9.644;2022-08-01T10:35:05;37.50;37.20
38936;DHT22;25541;47.458;9.644;2022-08-01T10:37:33;36.60;35.70
38936;DHT22;25541;47.458;9.644;2022-08-01T10:40:00;35.30;38.60
38936;DHT22;25541;47.458;9.644;2022-08-01T10:42:26;34.50;39.00
38936;DHT22;25541;47.458;9.644;2022-08-01T10:44:54;33.80;42.00
38936;DHT22;25541;47.458;9.644;2022-08-01T10:47:37;33.00;43.00
38936;DHT22;25541;47.458;9.644;2022-08-01T10:50:17;32.60;43.20
38936;DHT22;25541;47.458;9.644;2022-08-01T10:53:10;32.90;43.70
38936;DHT22;25541;47.458;9.644;2022-08-01T10:56:07;32.10;44.70
38936;DHT22;25541;47.458;9.644;2022-08-01T10:58:37;32.00;45.70
38936;DHT22;25541;47.458;9.644;2022-08-01T11:01:22;31.90;46.20
38936;DHT22;25541;47.458;9.644;2022-08-01T11:04:09;32.00;46.10
38936;DHT22;25541;47.458;9.644;2022-08-01T11:12:22;31.20;48.50
38936;DHT22;25541;47.458;9.644;2022-08-01T11:14:31;31.00;47.90
38936;DHT22;25541;47.458;9.644;2022-08-01T11:17:34;31.10;46.50
38936;DHT22;25541;47.458;9.644;2022-08-01T11:30:40;30.70;48.20
38936;DHT22;25541;47.458;9.644;2022-08-01T11:33:06;30.80;49.70
38936;DHT22;25541;47.458;9.644;2022-08-01T11:35:32;30.70;50.90
38936;DHT22;25541;47.458;9.644;2022-08-01T11:38:27;30.90;49.00
38936;DHT22;25541;47.458;9.644;2022-08-01T11:44:03;31.00;47.90
38936;DHT22;25541;47.458;9.644;2022-08-01T11:49:29;30.60;49.80
38936;DHT22;25541;47.458;9.644;2022-08-01T11:52:32;30.40;52.10
38936;DHT22;25541;47.458;9.644;2022-08-01T11:55:08;30.60;50.40
38936;DHT22;25541;47.458;9.644;2022-08-01T11:57:35;30.70;47.90
38936;DHT22;25541;47.458;9.644;2022-08-01T12:00:13;30.70;48.00
38936;DHT22;25541;47.458;9.644;2022-08-01T12:02:39;30.40;49.50
38936;DHT22;25541;47.458;9.644;2022-08-01T12:05:10;30.60;49.10
38936;DHT22;25541;47.458;9.644;2022-08-01T12:07:38;30.80;50.80
38936;DHT22;25541;47.458;9.644;2022-08-01T12:10:05;30.60;52.00
38936;DHT22;25541;47.458;9.644;2022-08-01T12:12:32;30.40;48.50
38936;DHT22;25541;47.458;9.644;2022-08-01T12:15:00;30.50;50.30
38936;DHT22;25541;47.458;9.644;2022-08-01T12:17:46;30.40;48.10
38936;DHT22;25541;47.458;9.644;2022-08-01T12:20:19;30.50;46.00
38936;DHT22;25541;47.458;9.644;2022-08-01T12:22:45;30.50;48.30
38936;DHT22;25541;47.458;9.644;2022-08-01T12:25:16;30.20;49.00
38936;DHT22;25541;47.458;9.644;2022-08-01T12:27:43;30.30;47.80
38936;DHT22;25541;47.458;9.644;2022-08-01T12:30:12;30.20;49.80
38936;DHT22;25541;47.458;9.644;2022-08-01T12:32:39;30.20;47.90
38936;DHT22;25541;47.458;9.644;2022-08-01T12:35:10;30.30;49.10
38936;DHT22;25541;47.458;9.644;2022-08-01T12:37:37;30.40;47.90
38936;DHT22;25541;47.458;9.644;2022-08-01T12:40:24;30.30;47.00
38936;DHT22;25541;47.458;9.644;2022-08-01T12:42:55;30.30;46.30
38936;DHT22;25541;47.458;9.644;2022-08-01T12:45:27;30.30;46.40
38936;DHT22;25541;47.458;9.644;2022-08-01T12:47:54;30.50;46.30
38936;DHT22;25541;47.458;9.644;2022-08-01T12:50:22;30.40;45.50
38936;DHT22;25541;47.458;9.644;2022-08-01T12:52:49;30.10;47.50
38936;DHT22;25541;47.458;9.644;2022-08-01T12:55:20;30.20;50.20
38936;DHT22;25541;47.458;9.644;2022-08-01T12:57:48;30.00;47.50
38936;DHT22;25541;47.458;9.644;2022-08-01T13:02:47;30.00;47.40
38936;DHT22;25541;47.458;9.644;2022-08-01T13:05:14;30.00;49.90
38936;DHT22;25541;47.458;9.644;2022-08-01T13:07:49;30.40;47.70
38936;DHT22;25541;47.458;9.644;2022-08-01T13:10:27;30.60;49.60
38936;DHT22;25541;47.458;9.644;2022-08-01T13:12:56;30.40;46.90
38936;DHT22;25541;47.458;9.644;2022-08-01T13:15:30;30.40;49.50
38936;DHT22;25541;47.458;9.644;2022-08-01T13:17:57;30.60;48.50
38936;DHT22;25541;47.458;9.644;2022-08-01T13:20:34;30.70;47.50
38936;DHT22;25541;47.458;9.644;2022-08-01T13:23:18;30.50;49.50
38936;DHT22;25541;47.458;9.644;2022-08-01T13:25:48;30.70;48.70
38936;DHT22;25541;47.458;9.644;2022-08-01T13:28:15;30.70;46.20
38936;DHT22;25541;47.458;9.644;2022-08-01T13:30:51;30.70;49.60
38936;DHT22;25541;47.458;9.644;2022-08-01T13:33:17;30.80;47.20
38936;DHT22;25541;47.458;9.644;2022-08-01T13:35:42;30.90;45.50
38936;DHT22;25541;47.458;9.644;2022-08-01T13:38:08;30.80;45.80
38936;DHT22;25541;47.458;9.644;2022-08-01T13:40:34;30.80;45.10
38936;DHT22;25541;47.458;9.644;2022-08-01T13:43:00;30.80;46.70
38936;DHT22;25541;47.458;9.644;2022-08-01T13:45:25;30.70;45.90
38936;DHT22;25541;47.458;9.644;2022-08-01T13:47:51;30.40;45.80
38936;DHT22;25541;47.458;9.644;2022-08-01T13:50:17;30.30;48.00
38936;DHT22;25541;47.458;9.644;2022-08-01T13:52:42;30.10;50.10
38936;DHT22;25541;47.458;9.644;2022-08-01T13:55:08;30.20;46.60
38936;DHT22;25541;47.458;9.644;2022-08-01T13:57:34;30.40;46.20
38936;DHT22;25541;47.458;9.644;2022-08-01T13:59:59;30.50;46.40
38936;DHT22;25541;47.458;9.644;2022-08-01T14:02:26;30.30;46.10
38936;DHT22;25541;47.458;9.644;2022-08-01T14:04:53;30.20;49.10
38936;DHT22;25541;47.458;9.644;2022-08-01T14:07:20;30.30;49.30
38936;DHT22;25541;47.458;9.644;2022-08-01T14:09:45;30.20;47.20
38936;DHT22;25541;47.458;9.644;2022-08-01T14:12:11;30.20;48.10
38936;DHT22;25541;47.458;9.644;2022-08-01T14:14:37;30.40;48.80
38936;DHT22;25541;47.458;9.644;2022-08-01T14:17:04;30.60;47.70
38936;DHT22;25541;47.458;9.644;2022-08-01T14:19:30;30.70;46.90
38936;DHT22;25541;47.458;9.644;2022-08-01T14:21:56;30.60;46.30
38936;DHT22;25541;47.458;9.644;2022-08-01T14:24:23;30.60;45.80
38936;DHT22;25541;47.458;9.644;2022-08-01T14:26:49;30.30;47.60
38936;DHT22;25541;47.458;9.644;2022-08-01T14:29:14;30.30;45.40
38936;DHT22;25541;47.458;9.644;2022-08-01T14:31:40;30.20;46.10
38936;DHT22;25541;47.458;9.644;2022-08-01T14:34:06;30.30;46.00
38936;DHT22;25541;47.458;9.644;2022-08-01T14:36:32;30.20;46.10
38936;DHT22;25541;47.458;9.644;2022-08-01T14:38:58;30.20;45.70
38936;DHT22;25541;47.458;9.644;2022-08-01T14:41:24;30.30;45.60
38936;DHT22;25541;47.458;9.644;2022-08-01T14:43:49;30.40;44.90
38936;DHT22;25541;47.458;9.644;2022-08-01T14:46:15;30.50;46.50
38936;DHT22;25541;47.458;9.644;2022-08-01T14:48:41;30.60;46.30
38936;DHT22;25541;47.458;9.644;2022-08-01T14:51:07;30.40;45.80
38936;DHT22;25541;47.458;9.644;2022-08-01T14:53:33;30.40;45.50
38936;DHT22;25541;47.458;9.644;2022-08-01T14:56:00;30.20;45.60
38936;DHT22;25541;47.458;9.644;2022-08-01T14:58:26;30.40;46.40
38936;DHT22;25541;47.458;9.644;2022-08-01T15:00:52;30.40;46.70
38936;DHT22;25541;47.458;9.644;2022-08-01T15:03:21;30.50;48.40
38936;DHT22;25541;47.458;9.644;2022-08-01T15:05:46;30.40;47.20
38936;DHT22;25541;47.458;9.644;2022-08-01T15:08:12;30.50;46.10
38936;DHT22;25541;47.458;9.644;2022-08-01T15:10:38;30.40;46.90
38936;DHT22;25541;47.458;9.644;2022-08-01T15:13:03;30.20;46.90
38936;DHT22;25541;47.458;9.644;2022-08-01T15:15:29;30.30;46.30
38936;DHT22;25541;47.458;9.644;2022-08-01T15:17:55;30.30;46.00
38936;DHT22;25541;47.458;9.644;2022-08-01T15:20:21;30.40;45.70
38936;DHT22;25541;47.458;9.644;2022-08-01T15:22:47;30.40;45.50
38936;DHT22;25541;47.458;9.644;2022-08-01T15:25:13;30.10;46.80
38936;DHT22;25541;47.458;9.644;2022-08-01T15:27:39;29.90;46.00
38936;DHT22;25541;47.458;9.644;2022-08-01T15:30:06;29.90;48.20
38936;DHT22;25541;47.458;9.644;2022-08-01T15:32:33;30.10;46.20
38936;DHT22;25541;47.458;9.644;2022-08-01T15:34:58;30.20;45.30
38936;DHT22;25541;47.458;9.644;2022-08-01T15:37:24;30.30;46.50
38936;DHT22;25541;47.458;9.644;2022-08-01T15:39:50;30.40;46.10
38936;DHT22;25541;47.458;9.644;2022-08-01T15:42:17;30.50;45.40
38936;DHT22;25541;47.458;9.644;2022-08-01T15:44:43;30.60;44.10
38936;DHT22;25541;47.458;9.644;2022-08-01T15:47:09;30.40;45.30
38936;DHT22;25541;47.458;9.644;2022-08-01T15:49:36;30.20;46.20
38936;DHT22;25541;47.458;9.644;2022-08-01T15:52:08;30.20;45.70
38936;DHT22;25541;47.458;9.644;2022-08-01T15:54:34;30.40;46.20
38936;DHT22;25541;47.458;9.644;2022-08-01T15:57:01;30.50;45.80
38936;DHT22;25541;47.458;9.644;2022-08-01T15:59:26;30.60;45.90
38936;DHT22;25541;47.458;9.644;2022-08-01T16:01:52;30.30;45.20
38936;DHT22;25541;47.458;9.644;2022-08-01T16:04:18;30.00;45.50
38936;DHT22;25541;47.458;9.644;2022-08-01T16:06:46;29.70;46.50
38936;DHT22;25541;47.458;9.644;2022-08-01T16:09:11;29.60;45.80
38936;DHT22;25541;47.458;9.644;2022-08-01T16:11:38;29.50;45.80
38936;DHT22;25541;47.458;9.644;2022-08-01T16:14:03;29.80;44.90
38936;DHT22;25541;47.458;9.644;2022-08-01T16:16:29;30.00;45.80
38936;DHT22;25541;47.458;9.644;2022-08-01T16:18:55;30.10;45.00
38936;DHT22;25541;47.458;9.644;2022-08-01T16:21:21;30.30;45.40
38936;DHT22;25541;47.458;9.644;2022-08-01T16:23:49;30.80;44.90
38936;DHT22;25541;47.458;9.644;2022-08-01T16:26:15;30.90;44.10
38936;DHT22;25541;47.458;9.644;2022-08-01T16:28:41;31.20;44.80
38936;DHT22;25541;47.458;9.644;2022-08-01T16:31:09;31.10;45.70
38936;DHT22;25541;47.458;9.644;2022-08-01T16:33:34;30.80;45.40
38936;DHT22;25541;47.458;9.644;2022-08-01T16:36:01;30.80;45.70
38936;DHT22;25541;47.458;9.644;2022-08-01T16:38:26;31.00;44.20
38936;DHT22;25541;47.458;9.644;2022-08-01T16:40:52;31.00;44.50
38936;DHT22;25541;47.458;9.644;2022-08-01T16:43:20;31.10;44.10
38936;DHT22;25541;47.458;9.644;2022-08-01T16:45:46;30.90;44.60
38936;DHT22;25541;47.458;9.644;2022-08-01T16:48:13;30.80;43.90
38936;DHT22;25541;47.458;9.644;2022-08-01T16:50:49;30.80;43.60
38936;DHT22;25541;47.458;9.644;2022-08-01T16:53:19;30.70;44.10
38936;DHT22;25541;47.458;9.644;2022-08-01T16:55:45;30.50;44.10
38936;DHT22;25541;47.458;9.644;2022-08-01T16:58:16;30.40;44.50
38936;DHT22;25541;47.458;9.644;2022-08-01T17:00:42;30.30;44.20
38936;DHT22;25541;47.458;9.644;2022-08-01T17:03:09;30.30;45.20
38936;DHT22;25541;47.458;9.644;2022-08-01T17:05:35;30.20;45.20
38936;DHT22;25541;47.458;9.644;2022-08-01T17:08:02;29.90;44.60
38936;DHT22;25541;47.458;9.644;2022-08-01T17:10:27;29.70;44.90
38936;DHT22;25541;47.458;9.644;2022-08-01T17:12:53;29.80;44.30
38936;DHT22;25541;47.458;9.644;2022-08-01T17:15:19;29.80;45.50
38936;DHT22;25541;47.458;9.644;2022-08-01T17:17:45;29.90;44.30
38936;DHT22;25541;47.458;9.644;2022-08-01T17:20:10;29.70;45.00
38936;DHT22;25541;47.458;9.644;2022-08-01T17:22:36;29.50;44.90
38936;DHT22;25541;47.458;9.644;2022-08-01T17:25:02;29.40;44.50
38936;DHT22;25541;47.458;9.644;2022-08-01T17:27:28;29.50;44.60
38936;DHT22;25541;47.458;9.644;2022-08-01T17:29:54;29.70;44.30
38936;DHT22;25541;47.458;9.644;2022-08-01T17:32:19;29.70;44.20
38936;DHT22;25541;47.458;9.644;2022-08-01T17:34:45;29.80;44.90
38936;DHT22;25541;47.458;9.644;2022-08-01T17:37:11;29.60;48.40
38936;DHT22;25541;47.458;9.644;2022-08-01T17:39:37;29.40;48.00
38936;DHT22;25541;47.458;9.644;2022-08-01T17:42:03;29.30;48.40
38936;DHT22;25541;47.458;9.644;2022-08-01T17:44:28;29.20;48.40
38936;DHT22;25541;47.458;9.644;2022-08-01T17:46:54;29.10;50.00
38936;DHT22;25541;47.458;9.644;2022-08-01T17:49:20;28.90;51.80
38936;DHT22;25541;47.458;9.644;2022-08-01T17:51:47;28.50;54.40
38936;DHT22;25541;47.458;9.644;2022-08-01T17:54:12;28.30;53.80
38936;DHT22;25541;47.458;9.644;2022-08-01T17:56:38;28.20;54.40
38936;DHT22;25541;47.458;9.644;2022-08-01T17:59:04;28.10;54.80
38936;DHT22;25541;47.458;9.644;2022-08-01T18:01:30;28.00;56.00
38936;DHT22;25541;47.458;9.644;2022-08-01T18:03:56;27.80;56.40
38936;DHT22;25541;47.458;9.644;2022-08-01T18:06:22;27.70;58.20
38936;DHT22;25541;47.458;9.644;2022-08-01T18:08:49;27.50;59.00
38936;DHT22;25541;47.458;9.644;2022-08-01T18:11:15;27.50;60.10
38936;DHT22;25541;47.458;9.644;2022-08-01T18:13:41;27.50;60.70
38936;DHT22;25541;47.458;9.644;2022-08-01T18:16:08;27.40;60.20
38936;DHT22;25541;47.458;9.644;2022-08-01T18:18:36;27.40;59.70
38936;DHT22;25541;47.458;9.644;2022-08-01T18:21:04;27.30;59.90
38936;DHT22;25541;47.458;9.644;2022-08-01T18:23:30;27.10;61.40
38936;DHT22;25541;47.458;9.644;2022-08-01T18:25:58;26.90;62.00
38936;DHT22;25541;47.458;9.644;2022-08-01T18:28:29;26.80;61.50
38936;DHT22;25541;47.458;9.644;2022-08-01T18:30:55;26.80;62.00
38936;DHT22;25541;47.458;9.644;2022-08-01T18:33:22;26.70;62.00
38936;DHT22;25541;47.458;9.644;2022-08-01T18:35:48;26.30;63.00
38936;DHT22;25541;47.458;9.644;2022-08-01T18:38:14;26.20;62.70
38936;DHT22;25541;47.458;9.644;2022-08-01T18:40:40;26.20;62.10
38936;DHT22;25541;47.458;9.644;2022-08-01T18:43:05;26.20;61.90
38936;DHT22;25541;47.458;9.644;2022-08-01T18:45:31;26.30;62.90
38936;DHT22;25541;47.458;9.644;2022-08-01T18:47:57;26.20;62.00
38936;DHT22;25541;47.458;9.644;2022-08-01T18:50:24;26.20;61.50
38936;DHT22;25541;47.458;9.644;2022-08-01T18:52:51;26.20;62.80